OOA weather

Oskaloosa Municipal Airport
Oskaloosa, Iowa, United States

Public forecast

Using degrees Fahrenheit for public forecast. Weather courtesy of forecast.io.

Current aviation weather report (METAR) for Oskaloosa Municipal Airport

Retrieved 2020/08/07 01:15 UTC (0 seconds ago):

KOOA 070115Z AUTO 12006KT 10SM CLR 22/16 A3004 RMK AO2 T02150162

Closest aviation forecast (TAF) to Oskaloosa Municipal Airport

Closest forecast is Ottumwa Regional Airport, 7.5 nm (13.8 km) SSE. Retrieved 2020-08-07 00:34 UTC (38 minutes ago):

TAF KOTM 062332Z 0700/0724 12012G17KT P6SM SKC FM070100 13008KT P6SM SCT100 FM071500 15012KT P6SM SCT050 FM072000 16014G22KT P6SM BKN060